createdAt,value
2022-08-29T00:00:23.763Z,99644.16
2022-08-29T00:02:56.115Z,99648.13
2022-08-29T00:05:27.037Z,99649.97
2022-08-29T00:08:04.283Z,99655.59
2022-08-29T00:10:33.751Z,99648.94
2022-08-29T00:13:01.966Z,99649.34
2022-08-29T00:15:31.473Z,99637.88
2022-08-29T00:18:09.861Z,99650.59
2022-08-29T00:20:39.376Z,99641.00
2022-08-29T00:23:09.010Z,99641.63
2022-08-29T00:25:40.754Z,99637.03
2022-08-29T00:28:08.838Z,99641.44
2022-08-29T00:30:38.384Z,99644.53
2022-08-29T00:33:06.717Z,99636.63
2022-08-29T00:35:38.487Z,99635.34
2022-08-29T00:38:16.600Z,99636.41
2022-08-29T00:40:51.999Z,99636.19
2022-08-29T00:43:24.731Z,99637.66
2022-08-29T00:46:13.060Z,99639.13
2022-08-29T00:48:43.434Z,99636.41
2022-08-29T00:51:22.669Z,99650.19
2022-08-29T00:53:58.536Z,99633.28
2022-08-29T00:56:27.925Z,99627.88
2022-08-29T00:59:01.873Z,99644.13
2022-08-29T01:01:30.969Z,99633.44
2022-08-29T01:04:00.501Z,99641.16
2022-08-29T01:06:29.816Z,99637.03
2022-08-29T01:08:59.949Z,99631.59
2022-08-29T01:11:48.031Z,99642.25
2022-08-29T01:14:18.561Z,99639.28
2022-08-29T01:16:50.028Z,99637.44
2022-08-29T01:19:24.805Z,99638.00
2022-08-29T01:22:03.491Z,99638.06
2022-08-29T01:24:38.167Z,99637.22
2022-08-29T01:27:06.785Z,99638.69
2022-08-29T01:29:35.655Z,99646.63
2022-08-29T01:32:04.385Z,99638.06
2022-08-29T01:34:33.037Z,99632.22
2022-08-29T01:37:03.142Z,99636.63
2022-08-29T01:39:37.523Z,99639.34
2022-08-29T01:42:10.619Z,99639.94
2022-08-29T01:44:42.517Z,99636.63
2022-08-29T01:47:11.830Z,99640.34
2022-08-29T01:49:41.258Z,99640.16
2022-08-29T01:52:10.174Z,99637.25
2022-08-29T01:54:41.413Z,99634.09
2022-08-29T01:57:13.146Z,99632.44
2022-08-29T01:59:42.266Z,99634.72
2022-08-29T02:02:12.918Z,99638.28
2022-08-29T02:04:42.759Z,99646.41
2022-08-29T02:07:12.875Z,99652.47
2022-08-29T02:09:45.975Z,99645.78
2022-08-29T02:12:15.694Z,99655.34
2022-08-29T02:14:49.334Z,99643.69
2022-08-29T02:17:17.732Z,99647.88
2022-08-29T02:19:46.122Z,99660.81
2022-08-29T02:22:14.830Z,99656.97
2022-08-29T02:24:44.625Z,99656.16
2022-08-29T02:27:14.220Z,99658.22
2022-08-29T02:29:43.720Z,99670.41
2022-08-29T02:32:14.850Z,99653.84
2022-08-29T02:34:48.540Z,99667.28
2022-08-29T02:37:17.888Z,99668.13
2022-08-29T02:39:50.902Z,99666.03
2022-08-29T02:42:20.180Z,99657.81
2022-08-29T02:44:48.804Z,99654.31
2022-08-29T02:47:16.974Z,99653.28
2022-08-29T02:49:45.767Z,99651.44
2022-08-29T02:52:14.582Z,99658.16
2022-08-29T02:54:43.763Z,99650.31
2022-08-29T02:57:13.264Z,99656.81
2022-08-29T02:59:41.847Z,99662.06
2022-08-29T03:02:11.328Z,99651.19
2022-08-29T03:04:39.787Z,99664.84
2022-08-29T03:07:09.446Z,99669.06
2022-08-29T03:09:37.668Z,99665.38
2022-08-29T03:12:05.984Z,99672.19
2022-08-29T03:14:36.888Z,99665.09
2022-08-29T03:17:05.312Z,99676.81
2022-08-29T03:19:37.545Z,99676.22
2022-08-29T03:22:05.731Z,99670.50
2022-08-29T03:24:35.680Z,99679.69
2022-08-29T03:27:03.914Z,99670.72
2022-08-29T03:29:34.184Z,99682.00
2022-08-29T03:32:13.497Z,99672.44
2022-08-29T03:34:43.164Z,99677.41
2022-08-29T03:37:12.415Z,99689.94
2022-08-29T03:39:40.968Z,99689.19
2022-08-29T03:42:09.718Z,99696.69
2022-08-29T03:44:40.865Z,99689.56
2022-08-29T03:47:11.959Z,99709.38
2022-08-29T03:49:41.163Z,99701.00
2022-08-29T03:52:11.400Z,99692.03
2022-08-29T03:54:40.034Z,99705.00
2022-08-29T03:57:09.493Z,99695.22
2022-08-29T03:59:37.881Z,99697.22
2022-08-29T04:02:07.220Z,99699.25
2022-08-29T04:04:57.209Z,99694.69
2022-08-29T04:07:26.398Z,99701.44
2022-08-29T04:09:54.887Z,99695.81
2022-08-29T04:12:28.859Z,99705.38
2022-08-29T04:14:57.112Z,99712.47
2022-08-29T04:17:25.307Z,99717.47
2022-08-29T04:19:55.280Z,99716.91
2022-08-29T04:22:23.399Z,99719.34
2022-08-29T04:24:52.641Z,99716.22
2022-08-29T04:27:20.907Z,99717.09
2022-08-29T04:29:50.143Z,99719.50
2022-08-29T04:32:20.978Z,99723.63
2022-08-29T04:34:50.745Z,99726.22
2022-08-29T04:37:20.333Z,99733.56
2022-08-29T04:39:49.441Z,99728.75
2022-08-29T04:42:20.170Z,99730.84
2022-08-29T04:44:51.335Z,99721.50
2022-08-29T04:47:21.725Z,99728.63
2022-08-29T04:49:56.603Z,99731.47
2022-08-29T04:52:28.875Z,99735.06
2022-08-29T04:54:58.505Z,99746.94
2022-08-29T04:57:29.322Z,99748.44
2022-08-29T05:00:00.010Z,99753.69
2022-08-29T05:02:30.175Z,99757.41
2022-08-29T05:04:58.398Z,99755.47
2022-08-29T05:07:29.417Z,99752.97
2022-08-29T05:10:00.341Z,99767.00
2022-08-29T05:12:30.476Z,99760.28
2022-08-29T05:14:59.149Z,99770.50
2022-08-29T05:17:29.529Z,99763.50
2022-08-29T05:19:57.745Z,99767.00
2022-08-29T05:22:25.989Z,99764.31
2022-08-29T05:24:58.219Z,99765.44
2022-08-29T05:27:26.970Z,99766.00
2022-08-29T05:29:56.772Z,99775.56
2022-08-29T05:32:24.842Z,99767.41
2022-08-29T05:34:55.995Z,99767.63
2022-08-29T05:37:25.051Z,99763.34
2022-08-29T05:39:53.243Z,99770.06
2022-08-29T05:42:23.494Z,99768.16
2022-08-29T05:44:54.293Z,99773.38
2022-08-29T05:47:22.581Z,99775.47
2022-08-29T05:49:52.246Z,99772.41
2022-08-29T05:52:22.039Z,99781.38
2022-08-29T05:54:50.529Z,99779.69
2022-08-29T05:57:25.873Z,99778.91
2022-08-29T05:59:56.285Z,99781.09
2022-08-29T06:02:25.430Z,99772.00
2022-08-29T06:04:55.161Z,99775.97
2022-08-29T06:07:25.429Z,99782.25
2022-08-29T06:09:55.020Z,99785.84
2022-08-29T06:12:34.118Z,99780.00
2022-08-29T06:15:03.731Z,99779.72
2022-08-29T06:17:31.911Z,99795.22
2022-08-29T06:20:03.391Z,99787.00
2022-08-29T06:22:32.146Z,99790.66
2022-08-29T06:25:11.847Z,99793.31
2022-08-29T06:27:59.548Z,99794.53
2022-08-29T06:30:32.721Z,99789.97
2022-08-29T06:33:01.819Z,99791.25
2022-08-29T06:35:31.126Z,99799.41
2022-08-29T06:37:59.379Z,99799.03
2022-08-29T06:40:38.281Z,99794.78
2022-08-29T06:43:07.893Z,99793.56
2022-08-29T06:45:44.111Z,99793.09
2022-08-29T06:48:13.974Z,99803.78
2022-08-29T06:50:45.668Z,99809.16
2022-08-29T06:53:26.837Z,99803.13
2022-08-29T06:56:06.727Z,99811.75
2022-08-29T06:58:42.014Z,99808.19
2022-08-29T07:01:13.494Z,99810.69
2022-08-29T07:03:42.581Z,99818.59
2022-08-29T07:06:18.588Z,99814.88
2022-08-29T07:08:54.915Z,99823.03
2022-08-29T07:11:26.025Z,99814.63
2022-08-29T07:14:07.741Z,99809.50
2022-08-29T07:16:38.946Z,99818.66
2022-08-29T07:19:08.847Z,99818.94
2022-08-29T07:21:38.507Z,99808.53
2022-08-29T07:24:08.108Z,99817.22
2022-08-29T07:26:39.044Z,99819.53
2022-08-29T07:29:12.051Z,99820.41
2022-08-29T07:31:40.314Z,99823.56
2022-08-29T07:34:08.745Z,99829.75
2022-08-29T07:36:38.528Z,99822.31
2022-08-29T07:39:09.254Z,99837.59
2022-08-29T07:41:38.545Z,99824.19
2022-08-29T07:44:09.685Z,99823.34
2022-08-29T07:46:39.493Z,99826.91
2022-08-29T07:49:08.585Z,99823.56
2022-08-29T07:51:37.402Z,99833.78
2022-08-29T07:54:16.775Z,99844.25
2022-08-29T07:56:48.088Z,99840.91
2022-08-29T07:59:16.435Z,99837.81
2022-08-29T08:01:48.612Z,99831.09
2022-08-29T08:04:17.195Z,99828.81
2022-08-29T08:06:47.971Z,99833.41
2022-08-29T08:09:16.427Z,99831.94
2022-08-29T08:11:46.198Z,99833.81
2022-08-29T08:14:15.367Z,99845.72
2022-08-29T08:16:46.110Z,99835.50
2022-08-29T08:19:16.573Z,99846.16
2022-08-29T08:21:49.791Z,99834.84
2022-08-29T08:24:19.919Z,99834.66
2022-08-29T08:26:53.021Z,99838.41
2022-08-29T08:29:21.265Z,99834.38
2022-08-29T08:31:53.215Z,99836.91
2022-08-29T08:34:22.988Z,99836.66
2022-08-29T08:36:51.087Z,99843.31
2022-08-29T08:39:19.406Z,99838.78
2022-08-29T08:41:53.712Z,99837.97
2022-08-29T08:44:48.855Z,99844.91
2022-08-29T08:47:24.678Z,99844.28
2022-08-29T08:49:56.186Z,99851.78
2022-08-29T08:52:31.424Z,99855.34
2022-08-29T08:55:04.386Z,99848.03
2022-08-29T08:57:39.712Z,99845.72
2022-08-29T09:00:11.661Z,99845.09
2022-08-29T09:02:52.649Z,99848.19
2022-08-29T09:05:33.011Z,99841.47
2022-08-29T09:08:06.984Z,99844.28
2022-08-29T09:10:42.520Z,99841.59
2022-08-29T09:13:21.642Z,99846.63
2022-08-29T09:15:56.359Z,99837.97
2022-08-29T09:18:36.174Z,99858.94
2022-08-29T09:21:39.526Z,99847.44
2022-08-29T09:24:08.750Z,99841.16
2022-08-29T09:26:37.316Z,99846.50
2022-08-29T09:29:08.908Z,99843.22
2022-08-29T09:31:37.760Z,99841.66
2022-08-29T09:34:12.136Z,99838.91
2022-08-29T09:36:47.789Z,99846.63
2022-08-29T09:39:21.014Z,99842.06
2022-08-29T09:41:54.638Z,99843.56
2022-08-29T09:44:27.576Z,99839.88
2022-08-29T09:47:08.418Z,99835.50
2022-08-29T09:49:41.572Z,99836.66
2022-08-29T09:52:16.496Z,99837.63
2022-08-29T09:54:57.403Z,99848.09
2022-08-29T09:57:35.231Z,99844.31
2022-08-29T10:00:13.702Z,99863.22
2022-08-29T10:02:47.509Z,99849.38
2022-08-29T10:05:48.239Z,99835.56
2022-08-29T10:08:35.491Z,99837.06
2022-08-29T10:11:07.787Z,99838.31
2022-08-29T10:13:49.070Z,99834.28
2022-08-29T10:16:38.847Z,99822.69
2022-08-29T10:19:15.253Z,99826.63
2022-08-29T10:21:51.638Z,99838.69
2022-08-29T10:24:30.775Z,99839.44
2022-08-29T10:27:07.256Z,99831.31
2022-08-29T10:29:55.674Z,99824.03
2022-08-29T10:32:33.704Z,99832.16
2022-08-29T10:35:07.850Z,99817.16
2022-08-29T10:37:50.248Z,99824.50
2022-08-29T10:40:26.107Z,99823.47
2022-08-29T10:43:15.013Z,99825.03
2022-08-29T10:45:56.407Z,99828.31
2022-08-29T10:48:30.354Z,99825.00
2022-08-29T10:51:13.266Z,99822.84
2022-08-29T10:53:54.208Z,99825.03
2022-08-29T10:56:25.895Z,99816.03
2022-08-29T10:59:02.255Z,99816.03
2022-08-29T11:01:32.562Z,99813.41
2022-08-29T11:04:14.076Z,99820.41
2022-08-29T11:06:48.119Z,99804.41
2022-08-29T11:09:20.717Z,99812.31
2022-08-29T11:12:00.435Z,99811.78
2022-08-29T11:14:34.651Z,99796.56
2022-08-29T11:17:05.740Z,99799.13
2022-08-29T11:19:41.839Z,99787.63
2022-08-29T11:22:15.458Z,99800.44
2022-08-29T11:24:47.282Z,99798.47
2022-08-29T11:27:25.529Z,99782.28
2022-08-29T11:30:03.574Z,99794.72
2022-08-29T11:32:48.190Z,99796.38
2022-08-29T11:35:22.097Z,99802.09
2022-08-29T11:38:26.286Z,99796.75
2022-08-29T11:41:28.296Z,99794.94
2022-08-29T11:44:04.437Z,99789.50
2022-08-29T11:46:49.287Z,99797.19
2022-08-29T11:49:36.676Z,99786.75
2022-08-29T11:52:28.817Z,99780.63
2022-08-29T11:55:29.255Z,99790.06
2022-08-29T11:58:08.808Z,99779.28
2022-08-29T12:00:45.906Z,99782.72
2022-08-29T12:03:57.586Z,99770.34
2022-08-29T12:06:55.791Z,99776.72
2022-08-29T12:09:44.024Z,99771.69
2022-08-29T12:12:18.362Z,99771.88
2022-08-29T12:14:53.149Z,99781.28
2022-08-29T12:18:03.807Z,99771.72
2022-08-29T12:20:42.989Z,99760.78
2022-08-29T12:23:36.221Z,99751.56
2022-08-29T12:26:22.069Z,99763.16
2022-08-29T12:29:00.748Z,99769.09
2022-08-29T12:32:18.065Z,99764.22
2022-08-29T12:35:12.066Z,99749.34
2022-08-29T12:37:52.675Z,99750.94
2022-08-29T12:40:35.816Z,99746.94
2022-08-29T12:43:37.429Z,99751.50
2022-08-29T12:46:17.386Z,99755.41
2022-08-29T12:48:57.504Z,99749.69
2022-08-29T12:51:37.659Z,99744.03
2022-08-29T12:54:10.271Z,99743.59
2022-08-29T12:56:43.707Z,99733.03
2022-08-29T12:59:18.661Z,99736.16
2022-08-29T13:01:50.271Z,99733.88
2022-08-29T13:04:32.553Z,99732.41
2022-08-29T13:07:02.596Z,99727.38
2022-08-29T13:09:33.695Z,99735.09
2022-08-29T13:12:10.469Z,99725.06
2022-08-29T13:14:53.491Z,99724.44
2022-08-29T13:17:25.231Z,99721.19
2022-08-29T13:20:40.374Z,99728.47
2022-08-29T13:23:20.400Z,99717.97
2022-08-29T13:25:54.570Z,99716.00
2022-08-29T13:28:27.075Z,99710.56
2022-08-29T13:31:36.297Z,99717.13
2022-08-29T13:34:24.564Z,99710.47
2022-08-29T13:36:59.434Z,99711.78
2022-08-29T13:39:39.276Z,99702.97
2022-08-29T13:42:33.054Z,99705.66
2022-08-29T13:45:15.419Z,99707.56
2022-08-29T13:47:57.124Z,99706.06
2022-08-29T13:50:27.083Z,99695.38
2022-08-29T13:52:56.572Z,99690.28
2022-08-29T13:55:29.335Z,99686.19
2022-08-29T13:57:57.859Z,99685.06
2022-08-29T14:00:35.218Z,99686.63
2022-08-29T14:03:12.278Z,99681.25
2022-08-29T14:05:50.154Z,99675.16
2022-08-29T14:08:20.412Z,99670.50
2022-08-29T14:10:54.147Z,99673.00
2022-08-29T14:13:22.774Z,99675.66
2022-08-29T14:16:01.267Z,99669.16
2022-08-29T14:18:46.753Z,99671.25
2022-08-29T14:21:24.925Z,99674.19
2022-08-29T14:24:04.921Z,99671.41
2022-08-29T14:26:34.505Z,99660.19
2022-08-29T14:29:03.572Z,99661.00
2022-08-29T14:31:34.664Z,99675.59
2022-08-29T14:34:11.710Z,99672.16
2022-08-29T14:36:43.544Z,99662.72
2022-08-29T14:39:17.564Z,99669.31
2022-08-29T14:41:48.737Z,99666.41
2022-08-29T14:44:24.232Z,99656.69
2022-08-29T14:46:53.169Z,99661.06
2022-08-29T14:49:21.761Z,99659.78
2022-08-29T14:51:50.063Z,99666.19
2022-08-29T14:54:21.162Z,99667.38
2022-08-29T14:56:53.667Z,99653.34
2022-08-29T14:59:27.702Z,99665.81
2022-08-29T15:01:57.550Z,99657.22
2022-08-29T15:04:35.328Z,99658.16
2022-08-29T15:07:08.787Z,99660.94
2022-08-29T15:09:38.398Z,99651.09
2022-08-29T15:12:09.312Z,99646.88
2022-08-29T15:14:38.042Z,99651.94
2022-08-29T15:17:07.891Z,99646.88
2022-08-29T15:22:27.069Z,99655.81
2022-08-29T15:24:55.876Z,99649.75
2022-08-29T15:27:28.681Z,99649.06
2022-08-29T15:29:58.417Z,99649.88
2022-08-29T15:32:26.921Z,99654.69
2022-08-29T15:34:56.168Z,99655.69
2022-08-29T15:37:25.100Z,99657.69
2022-08-29T15:39:55.085Z,99651.66
2022-08-29T15:42:31.131Z,99659.41
2022-08-29T15:45:07.710Z,99649.75
2022-08-29T15:47:37.449Z,99657.03
2022-08-29T15:50:15.745Z,99651.00
2022-08-29T15:52:45.461Z,99653.28
2022-08-29T15:55:14.016Z,99655.56
2022-08-29T15:57:51.989Z,99655.03
2022-08-29T16:00:31.167Z,99659.06
2022-08-29T16:03:12.624Z,99655.78
2022-08-29T16:05:43.002Z,99653.28
2022-08-29T16:08:16.647Z,99655.75
2022-08-29T16:10:50.274Z,99656.06
2022-08-29T16:13:18.946Z,99654.22
2022-08-29T16:15:59.243Z,99653.22
2022-08-29T16:18:31.445Z,99659.97
2022-08-29T16:21:02.682Z,99655.06
2022-08-29T16:23:32.168Z,99660.94
2022-08-29T16:26:09.227Z,99661.06
2022-08-29T16:28:39.891Z,99666.25
2022-08-29T16:31:13.711Z,99664.09
2022-08-29T16:33:44.121Z,99664.66
2022-08-29T16:36:17.636Z,99665.59
2022-08-29T16:38:46.944Z,99670.78
2022-08-29T16:41:18.842Z,99671.19
2022-08-29T16:43:52.204Z,99663.00
2022-08-29T16:46:27.286Z,99670.75
2022-08-29T16:49:00.690Z,99671.19
2022-08-29T16:51:30.215Z,99670.44
2022-08-29T16:54:02.533Z,99664.66
2022-08-29T16:56:32.977Z,99665.78
2022-08-29T16:59:01.836Z,99668.72
2022-08-29T17:01:37.059Z,99671.78
2022-08-29T17:04:07.544Z,99661.53
2022-08-29T17:06:37.568Z,99661.38
2022-08-29T17:09:08.859Z,99666.16
2022-08-29T17:11:38.415Z,99667.25
2022-08-29T17:14:17.354Z,99661.47
2022-08-29T17:16:49.526Z,99669.94
2022-08-29T17:19:19.855Z,99672.66
2022-08-29T17:21:48.067Z,99678.75
2022-08-29T17:24:16.403Z,99674.41
2022-08-29T17:26:53.883Z,99674.03
2022-08-29T17:29:25.813Z,99674.66
2022-08-29T17:31:56.497Z,99676.28
2022-08-29T17:34:25.755Z,99661.09
2022-08-29T17:36:56.589Z,99674.03
2022-08-29T17:39:28.295Z,99666.22
2022-08-29T17:42:10.435Z,99663.97
2022-08-29T17:44:47.873Z,99669.16
2022-08-29T17:47:20.622Z,99668.19
2022-08-29T17:49:50.045Z,99674.50
2022-08-29T17:52:20.799Z,99669.28
2022-08-29T17:54:50.118Z,99669.16
2022-08-29T17:57:19.095Z,99674.50
2022-08-29T17:59:48.853Z,99675.69
2022-08-29T18:02:20.738Z,99679.13
2022-08-29T18:04:50.543Z,99682.81
2022-08-29T18:07:19.121Z,99688.03
2022-08-29T18:09:49.284Z,99697.88
2022-08-29T18:12:20.388Z,99699.88
2022-08-29T18:14:54.291Z,99698.47
2022-08-29T18:17:24.770Z,99701.53
2022-08-29T18:19:54.958Z,99701.78
2022-08-29T18:22:24.167Z,99705.50
2022-08-29T18:24:56.046Z,99714.03
2022-08-29T18:27:27.713Z,99710.88
2022-08-29T18:29:57.284Z,99718.59
2022-08-29T18:32:37.179Z,99726.88
2022-08-29T18:35:08.519Z,99722.22
2022-08-29T18:37:37.130Z,99728.63
2022-08-29T18:40:06.112Z,99733.34
2022-08-29T18:42:40.953Z,99742.31
2022-08-29T18:45:14.332Z,99726.22
2022-08-29T18:47:44.485Z,99734.09
2022-08-29T18:50:31.465Z,99738.44
2022-08-29T18:53:02.779Z,99741.69
2022-08-29T18:55:32.221Z,99748.25
2022-08-29T18:58:03.934Z,99749.63
2022-08-29T19:00:37.728Z,99750.28
2022-08-29T19:03:07.645Z,99750.97
2022-08-29T19:05:38.681Z,99752.97
2022-08-29T19:08:08.913Z,99758.03
2022-08-29T19:10:37.302Z,99757.44
2022-08-29T19:13:08.154Z,99753.03
2022-08-29T19:15:41.421Z,99751.75
2022-08-29T19:18:13.950Z,99763.59
2022-08-29T19:21:01.429Z,99751.09
2022-08-29T19:23:30.726Z,99762.25
2022-08-29T19:26:01.289Z,99762.00
2022-08-29T19:28:32.931Z,99768.84
2022-08-29T19:31:09.873Z,99762.47
2022-08-29T19:33:40.015Z,99763.91
2022-08-29T19:36:14.881Z,99764.06
2022-08-29T19:38:46.667Z,99771.38
2022-08-29T19:41:17.867Z,99765.63
2022-08-29T19:43:50.885Z,99765.91
2022-08-29T19:46:25.424Z,99768.19
2022-08-29T19:48:58.126Z,99768.06
2022-08-29T19:51:29.805Z,99771.81
2022-08-29T19:54:01.665Z,99767.03
2022-08-29T19:56:33.376Z,99761.22
2022-08-29T19:59:02.537Z,99759.06
2022-08-29T20:01:31.934Z,99756.84
2022-08-29T20:04:06.726Z,99763.03
2022-08-29T20:06:35.342Z,99759.44
2022-08-29T20:09:07.517Z,99767.38
2022-08-29T20:11:43.682Z,99773.41
2022-08-29T20:14:14.061Z,99768.38
2022-08-29T20:16:45.530Z,99772.75
2022-08-29T20:19:15.907Z,99770.91
2022-08-29T20:21:47.808Z,99771.28
2022-08-29T20:24:16.730Z,99776.13
2022-08-29T20:26:50.564Z,99775.44
2022-08-29T20:29:22.594Z,99773.66
2022-08-29T20:31:51.975Z,99775.31
2022-08-29T20:34:25.170Z,99775.84
2022-08-29T20:37:12.763Z,99779.78
2022-08-29T20:39:46.547Z,99772.38
2022-08-29T20:42:15.249Z,99779.47
2022-08-29T20:44:45.672Z,99779.34
2022-08-29T20:47:15.413Z,99784.34
2022-08-29T20:49:45.940Z,99774.94
2022-08-29T20:52:24.373Z,99773.94
2022-08-29T20:54:55.363Z,99776.53
2022-08-29T20:57:23.574Z,99785.31
2022-08-29T20:59:55.095Z,99780.22
2022-08-29T21:02:25.069Z,99777.25
2022-08-29T21:05:12.650Z,99773.56
2022-08-29T21:07:46.585Z,99781.50
2022-08-29T21:10:19.079Z,99784.25
2022-08-29T21:12:48.805Z,99784.00
2022-08-29T21:15:19.837Z,99778.97
2022-08-29T21:17:50.536Z,99785.38
2022-08-29T21:20:21.650Z,99785.97
2022-08-29T21:22:49.879Z,99791.19
2022-08-29T21:25:19.948Z,99784.31
2022-08-29T21:27:55.977Z,99794.53
2022-08-29T21:30:25.531Z,99792.81
2022-08-29T21:32:55.547Z,99794.91
2022-08-29T21:35:32.860Z,99802.81
2022-08-29T21:38:03.162Z,99801.56
2022-08-29T21:40:33.645Z,99797.88
2022-08-29T21:43:02.324Z,99801.66
2022-08-29T21:45:35.303Z,99805.94
2022-08-29T21:48:07.275Z,99806.88
2022-08-29T21:50:38.681Z,99806.31
2022-08-29T21:53:08.022Z,99807.59
2022-08-29T21:55:36.349Z,99813.06
2022-08-29T21:58:07.074Z,99806.84
2022-08-29T22:00:36.975Z,99814.38
2022-08-29T22:03:18.068Z,99814.59
2022-08-29T22:05:50.302Z,99817.06
2022-08-29T22:08:29.777Z,99817.69
2022-08-29T22:10:58.698Z,99819.94
2022-08-29T22:13:31.755Z,99818.97
2022-08-29T22:16:20.081Z,99818.00
2022-08-29T22:18:53.525Z,99810.00
2022-08-29T22:21:38.100Z,99811.66
2022-08-29T22:24:24.016Z,99808.94
2022-08-29T22:26:54.582Z,99811.06
2022-08-29T22:29:22.780Z,99808.09
2022-08-29T22:31:51.385Z,99798.63
2022-08-29T22:34:19.903Z,99809.16
2022-08-29T22:36:49.444Z,99812.56
2022-08-29T22:39:19.135Z,99807.50
2022-08-29T22:41:47.842Z,99807.78
2022-08-29T22:44:59.884Z,99812.78
2022-08-29T22:47:09.184Z,99808.78
2022-08-29T22:49:40.665Z,99807.94
2022-08-29T22:52:13.102Z,99798.81
2022-08-29T22:54:41.659Z,99812.84
2022-08-29T22:57:12.589Z,99808.63
2022-08-29T22:59:42.615Z,99823.28
2022-08-29T23:02:12.360Z,99814.13
2022-08-29T23:04:42.260Z,99809.06
2022-08-29T23:07:12.357Z,99816.41
2022-08-29T23:09:42.787Z,99816.63
2022-08-29T23:12:12.745Z,99813.88
2022-08-29T23:14:43.468Z,99819.34
2022-08-29T23:17:11.587Z,99826.59
2022-08-29T23:19:41.390Z,99816.38
2022-08-29T23:22:13.467Z,99816.19
2022-08-29T23:24:53.797Z,99820.56
2022-08-29T23:27:30.875Z,99819.75
2022-08-29T23:30:00.050Z,99811.00
2022-08-29T23:32:31.322Z,99811.69
2022-08-29T23:34:59.465Z,99803.28
2022-08-29T23:37:29.929Z,99810.84
2022-08-29T23:39:59.782Z,99815.41
2022-08-29T23:42:29.293Z,99821.88
2022-08-29T23:44:58.859Z,99817.50
2022-08-29T23:47:28.575Z,99815.44
2022-08-29T23:49:57.488Z,99817.09
2022-08-29T23:52:26.700Z,99811.03
2022-08-29T23:54:57.025Z,99809.16
2022-08-29T23:57:26.162Z,99815.00
